createdAt,value
2022-07-31T00:00:16.345Z,20.90
2022-07-31T00:02:46.792Z,17.50
2022-07-31T00:05:16.352Z,17.67
2022-07-31T00:07:46.221Z,18.37
2022-07-31T00:10:15.789Z,19.60
2022-07-31T00:12:45.768Z,19.60
2022-07-31T00:15:17.856Z,19.47
2022-07-31T00:17:47.894Z,20.63
2022-07-31T00:20:19.547Z,19.50
2022-07-31T00:22:50.648Z,22.20
2022-07-31T00:25:21.202Z,20.60
2022-07-31T00:27:50.648Z,21.90
2022-07-31T00:30:22.767Z,20.07
2022-07-31T00:32:52.593Z,18.67
2022-07-31T00:35:22.149Z,24.40
2022-07-31T00:37:54.797Z,23.67
2022-07-31T00:40:31.841Z,21.50
2022-07-31T00:43:01.327Z,20.43
2022-07-31T00:45:33.463Z,26.97
2022-07-31T00:48:03.966Z,18.57
2022-07-31T00:50:34.010Z,18.63
2022-07-31T00:53:03.632Z,21.40
2022-07-31T00:55:33.301Z,19.07
2022-07-31T00:58:21.084Z,19.53
2022-07-31T01:00:53.211Z,19.50
2022-07-31T01:03:22.917Z,20.57
2022-07-31T01:05:52.430Z,25.13
2022-07-31T01:08:21.914Z,20.83
2022-07-31T01:11:01.931Z,20.60
2022-07-31T01:13:35.941Z,19.50
2022-07-31T01:16:09.119Z,18.40
2022-07-31T01:18:40.073Z,21.57
2022-07-31T01:21:11.734Z,19.77
2022-07-31T01:23:55.086Z,21.00
2022-07-31T01:26:36.113Z,19.47
2022-07-31T01:29:17.138Z,18.40
2022-07-31T01:31:49.287Z,20.67
2022-07-31T01:34:38.269Z,20.07
2022-07-31T01:37:11.812Z,21.53
2022-07-31T01:39:45.471Z,20.93
2022-07-31T01:42:17.429Z,22.73
2022-07-31T01:44:54.230Z,24.70
2022-07-31T01:47:24.630Z,22.00
2022-07-31T01:49:56.155Z,25.10
2022-07-31T01:52:27.857Z,21.20
2022-07-31T01:54:58.558Z,22.30
2022-07-31T01:57:29.585Z,25.80
2022-07-31T02:00:23.529Z,22.27
2022-07-31T02:03:09.788Z,21.63
2022-07-31T02:05:41.389Z,19.03
2022-07-31T02:08:12.597Z,19.67
2022-07-31T02:10:42.705Z,20.43
2022-07-31T02:13:13.469Z,23.03
2022-07-31T02:15:45.962Z,20.93
2022-07-31T02:18:15.477Z,22.40
2022-07-31T02:20:45.426Z,20.57
2022-07-31T02:23:15.876Z,21.80
2022-07-31T02:25:46.266Z,23.90
2022-07-31T02:28:20.362Z,22.57
2022-07-31T02:30:52.936Z,22.50
2022-07-31T02:33:24.159Z,23.70
2022-07-31T02:35:56.806Z,20.40
2022-07-31T02:38:28.914Z,21.93
2022-07-31T02:41:00.676Z,21.93
2022-07-31T02:43:30.755Z,22.23
2022-07-31T02:46:02.974Z,23.53
2022-07-31T02:48:32.668Z,19.90
2022-07-31T02:51:02.473Z,21.80
2022-07-31T02:53:33.267Z,22.07
2022-07-31T02:56:04.635Z,21.03
2022-07-31T02:58:34.265Z,21.10
2022-07-31T03:01:08.350Z,22.40
2022-07-31T03:03:38.053Z,20.40
2022-07-31T03:06:07.687Z,21.87
2022-07-31T03:08:37.397Z,23.67
2022-07-31T03:11:06.872Z,21.40
2022-07-31T03:13:37.982Z,24.37
2022-07-31T03:16:12.358Z,19.20
2022-07-31T03:18:42.890Z,19.80
2022-07-31T03:21:12.942Z,21.07
2022-07-31T03:23:42.685Z,21.50
2022-07-31T03:26:15.140Z,21.33
2022-07-31T03:28:45.310Z,21.80
2022-07-31T03:31:17.359Z,22.80
2022-07-31T03:33:46.813Z,22.13
2022-07-31T03:36:16.293Z,24.80
2022-07-31T03:38:50.371Z,23.00
2022-07-31T03:41:20.308Z,22.10
2022-07-31T03:43:50.789Z,23.47
2022-07-31T03:46:24.358Z,22.00
2022-07-31T03:48:54.476Z,20.80
2022-07-31T03:51:24.274Z,21.63
2022-07-31T03:53:54.265Z,21.37
2022-07-31T03:56:24.453Z,22.10
2022-07-31T03:58:54.034Z,21.83
2022-07-31T04:01:27.274Z,22.93
2022-07-31T04:04:16.693Z,22.77
2022-07-31T04:06:46.476Z,24.40
2022-07-31T04:09:19.065Z,23.27
2022-07-31T04:11:48.686Z,22.00
2022-07-31T04:14:18.183Z,23.03
2022-07-31T04:16:50.298Z,22.23
2022-07-31T04:19:19.756Z,21.17
2022-07-31T04:21:50.422Z,22.67
2022-07-31T04:24:21.782Z,24.33
2022-07-31T04:26:51.671Z,33.40
2022-07-31T04:29:21.262Z,27.27
2022-07-31T04:31:53.455Z,24.20
2022-07-31T04:34:22.986Z,28.23
2022-07-31T04:36:52.494Z,23.97
2022-07-31T04:39:21.981Z,24.10
2022-07-31T04:41:51.982Z,22.13
2022-07-31T04:44:21.535Z,22.80
2022-07-31T04:46:53.625Z,23.03
2022-07-31T04:49:23.174Z,20.70
2022-07-31T04:51:53.059Z,25.00
2022-07-31T04:54:22.666Z,25.40
2022-07-31T04:56:52.187Z,25.93
2022-07-31T04:59:23.230Z,25.17
2022-07-31T05:01:55.452Z,26.97
2022-07-31T05:04:26.479Z,26.10
2022-07-31T05:06:56.122Z,25.90
2022-07-31T05:09:30.171Z,25.43
2022-07-31T05:12:02.028Z,25.43
2022-07-31T05:14:31.871Z,24.17
2022-07-31T05:17:03.930Z,23.87
2022-07-31T05:19:33.455Z,24.37
2022-07-31T05:22:05.425Z,23.73
2022-07-31T05:24:35.241Z,23.00
2022-07-31T05:27:05.193Z,23.27
2022-07-31T05:29:35.915Z,23.87
2022-07-31T05:32:08.794Z,22.77
2022-07-31T05:34:38.282Z,23.60
2022-07-31T05:37:08.035Z,25.00
2022-07-31T05:39:37.533Z,23.27
2022-07-31T05:42:07.896Z,22.43
2022-07-31T05:44:37.703Z,23.20
2022-07-31T05:47:12.196Z,24.03
2022-07-31T05:49:41.683Z,23.17
2022-07-31T05:52:11.459Z,22.47
2022-07-31T05:54:40.952Z,22.00
2022-07-31T05:57:10.535Z,22.20
2022-07-31T05:59:40.035Z,21.83
2022-07-31T06:02:12.183Z,22.70
2022-07-31T06:04:41.657Z,21.30
2022-07-31T06:07:11.159Z,20.87
2022-07-31T06:09:41.675Z,20.80
2022-07-31T06:12:12.106Z,20.10
2022-07-31T06:14:41.587Z,20.07
2022-07-31T06:17:13.775Z,21.07
2022-07-31T06:19:43.291Z,20.00
2022-07-31T06:22:12.837Z,19.57
2022-07-31T06:24:42.565Z,23.73
2022-07-31T06:27:18.763Z,18.23
2022-07-31T06:30:03.062Z,16.53
2022-07-31T06:32:35.239Z,22.80
2022-07-31T06:35:05.662Z,17.67
2022-07-31T06:37:35.170Z,18.17
2022-07-31T06:40:04.826Z,19.60
2022-07-31T06:42:34.445Z,13.70
2022-07-31T06:45:03.931Z,13.20
2022-07-31T06:47:36.024Z,12.00
2022-07-31T06:50:05.917Z,11.50
2022-07-31T06:52:35.616Z,9.70
2022-07-31T06:55:05.122Z,8.30
2022-07-31T06:57:34.731Z,8.67
2022-07-31T07:00:15.017Z,8.13
2022-07-31T07:02:52.933Z,9.40
2022-07-31T07:05:22.466Z,9.40
2022-07-31T07:07:51.961Z,21.67
2022-07-31T07:10:21.465Z,43.00
2022-07-31T07:12:51.013Z,7.67
2022-07-31T07:15:20.889Z,18.33
2022-07-31T07:17:52.972Z,7.00
2022-07-31T07:20:22.888Z,7.97
2022-07-31T07:22:52.491Z,6.80
2022-07-31T07:25:22.471Z,8.80
2022-07-31T07:27:52.005Z,13.93
2022-07-31T07:30:21.601Z,6.60
2022-07-31T07:32:53.767Z,6.33
2022-07-31T07:35:23.378Z,13.23
2022-07-31T07:37:52.858Z,8.20
2022-07-31T07:40:23.446Z,5.53
2022-07-31T07:42:53.161Z,10.80
2022-07-31T07:45:22.626Z,5.93
2022-07-31T07:48:06.705Z,4.67
2022-07-31T07:50:37.273Z,6.70
2022-07-31T07:53:06.807Z,6.40
2022-07-31T07:55:37.717Z,3.90
2022-07-31T07:58:11.875Z,4.63
2022-07-31T08:00:41.749Z,4.03
2022-07-31T08:03:49.636Z,7.33
2022-07-31T08:06:03.378Z,5.13
2022-07-31T08:08:32.902Z,11.77
2022-07-31T08:11:03.569Z,14.17
2022-07-31T08:13:33.218Z,4.50
2022-07-31T08:16:02.714Z,7.30
2022-07-31T08:18:34.781Z,11.20
2022-07-31T08:21:04.255Z,3.90
2022-07-31T08:23:33.839Z,5.97
2022-07-31T08:26:04.441Z,4.00
2022-07-31T08:28:36.251Z,6.30
2022-07-31T08:31:06.217Z,3.47
2022-07-31T08:33:38.294Z,4.70
2022-07-31T08:36:09.190Z,4.50
2022-07-31T08:38:39.238Z,6.47
2022-07-31T08:41:08.787Z,3.93
2022-07-31T08:44:01.890Z,5.50
2022-07-31T08:46:28.687Z,5.50
2022-07-31T08:49:01.209Z,4.63
2022-07-31T08:51:31.242Z,3.43
2022-07-31T08:54:02.460Z,3.20
2022-07-31T08:56:32.203Z,4.87
2022-07-31T08:59:01.916Z,4.50
2022-07-31T09:01:31.999Z,2.70
2022-07-31T09:04:04.493Z,3.33
2022-07-31T09:06:33.962Z,3.33
2022-07-31T09:09:03.498Z,3.30
2022-07-31T09:11:34.065Z,2.90
2022-07-31T09:14:04.843Z,3.40
2022-07-31T09:16:34.611Z,4.23
2022-07-31T09:19:52.786Z,2.87
2022-07-31T09:21:57.538Z,3.33
2022-07-31T09:24:31.674Z,3.00
2022-07-31T09:27:08.687Z,2.40
2022-07-31T09:29:39.343Z,3.03
2022-07-31T09:32:13.726Z,2.90
2022-07-31T09:34:46.320Z,3.20
2022-07-31T09:37:17.179Z,3.37
2022-07-31T09:39:52.790Z,3.60
2022-07-31T09:42:23.347Z,2.80
2022-07-31T09:44:53.682Z,3.23
2022-07-31T09:47:26.835Z,3.10
2022-07-31T09:50:00.985Z,2.53
2022-07-31T09:52:32.324Z,3.53
2022-07-31T09:55:15.015Z,2.70
2022-07-31T09:57:54.812Z,2.70
2022-07-31T10:00:24.924Z,2.47
2022-07-31T10:02:56.540Z,2.93
2022-07-31T10:05:31.512Z,3.83
2022-07-31T10:08:01.819Z,3.97
2022-07-31T10:10:32.772Z,3.60
2022-07-31T10:13:05.042Z,2.83
2022-07-31T10:15:36.301Z,2.97
2022-07-31T10:18:08.587Z,2.77
2022-07-31T10:20:42.423Z,2.43
2022-07-31T10:23:16.571Z,2.90
2022-07-31T10:25:53.472Z,2.73
2022-07-31T10:28:24.511Z,3.07
2022-07-31T10:30:54.399Z,3.13
2022-07-31T10:33:48.942Z,16.20
2022-07-31T10:36:19.653Z,8.97
2022-07-31T10:38:54.884Z,8.83
2022-07-31T10:41:31.819Z,12.20
2022-07-31T10:44:03.937Z,5.10
2022-07-31T10:46:34.898Z,2.33
2022-07-31T10:49:08.235Z,2.40
2022-07-31T10:51:49.510Z,2.63
2022-07-31T10:54:19.302Z,2.63
2022-07-31T10:56:49.507Z,3.17
2022-07-31T10:59:19.066Z,3.00
2022-07-31T11:01:52.589Z,2.27
2022-07-31T11:04:29.262Z,2.53
2022-07-31T11:07:01.829Z,4.20
2022-07-31T11:09:31.937Z,2.87
2022-07-31T11:12:01.668Z,2.97
2022-07-31T11:14:35.159Z,3.00
2022-07-31T11:17:05.064Z,2.40
2022-07-31T11:19:41.767Z,3.30
2022-07-31T11:22:31.840Z,3.10
2022-07-31T11:25:01.982Z,2.50
2022-07-31T11:27:34.437Z,2.90
2022-07-31T11:30:13.203Z,2.73
2022-07-31T11:32:43.557Z,3.10
2022-07-31T11:35:13.347Z,2.80
2022-07-31T11:37:57.769Z,3.00
2022-07-31T11:40:28.541Z,2.57
2022-07-31T11:43:25.314Z,3.87
2022-07-31T11:45:49.839Z,3.17
2022-07-31T11:48:20.734Z,2.60
2022-07-31T11:50:51.212Z,2.97
2022-07-31T11:53:23.935Z,2.83
2022-07-31T11:55:54.600Z,3.00
2022-07-31T11:58:26.139Z,3.77
2022-07-31T12:00:57.197Z,3.10
2022-07-31T12:03:31.877Z,2.47
2022-07-31T12:06:01.593Z,2.73
2022-07-31T12:08:34.921Z,2.63
2022-07-31T12:11:05.822Z,2.83
2022-07-31T12:13:35.345Z,2.90
2022-07-31T12:16:06.307Z,2.40
2022-07-31T12:18:37.280Z,2.80
2022-07-31T12:21:07.874Z,2.70
2022-07-31T12:23:49.693Z,3.20
2022-07-31T12:26:26.248Z,2.60
2022-07-31T12:29:02.842Z,2.80
2022-07-31T12:31:34.177Z,3.13
2022-07-31T12:34:03.688Z,2.67
2022-07-31T12:36:33.171Z,3.40
2022-07-31T12:39:06.869Z,3.50
2022-07-31T12:41:44.797Z,4.00
2022-07-31T12:44:15.202Z,3.20
2022-07-31T12:46:51.827Z,2.80
2022-07-31T12:49:21.553Z,3.30
2022-07-31T12:51:51.159Z,2.70
2022-07-31T12:54:23.236Z,2.80
2022-07-31T12:56:52.719Z,3.13
2022-07-31T12:59:22.199Z,3.03
2022-07-31T13:01:51.902Z,2.97
2022-07-31T13:04:21.392Z,4.53
2022-07-31T13:06:52.044Z,2.20
2022-07-31T13:09:24.239Z,3.07
2022-07-31T13:11:57.703Z,2.63
2022-07-31T13:14:28.205Z,3.80
2022-07-31T13:16:58.291Z,2.70
2022-07-31T13:19:28.460Z,3.47
2022-07-31T13:21:58.059Z,2.93
2022-07-31T13:24:30.547Z,4.93
2022-07-31T13:27:01.608Z,2.70
2022-07-31T13:29:31.287Z,5.30
2022-07-31T13:32:00.919Z,2.80
2022-07-31T13:34:30.540Z,2.97
2022-07-31T13:37:00.036Z,3.00
2022-07-31T13:39:32.070Z,2.53
2022-07-31T13:42:01.663Z,2.90
2022-07-31T13:44:33.269Z,2.90
2022-07-31T13:47:03.227Z,2.67
2022-07-31T13:49:34.712Z,2.60
2022-07-31T13:52:04.688Z,2.83
2022-07-31T13:54:36.934Z,3.50
2022-07-31T13:57:06.984Z,4.20
2022-07-31T13:59:36.521Z,2.73
2022-07-31T14:02:06.196Z,3.80
2022-07-31T14:04:38.839Z,4.10
2022-07-31T14:07:09.417Z,4.30
2022-07-31T14:09:51.398Z,4.20
2022-07-31T14:12:24.945Z,3.60
2022-07-31T14:14:54.454Z,3.23
2022-07-31T14:17:24.075Z,3.97
2022-07-31T14:19:53.661Z,3.67
2022-07-31T14:22:23.202Z,3.50
2022-07-31T14:24:55.578Z,3.73
2022-07-31T14:27:25.057Z,4.30
2022-07-31T14:29:54.610Z,4.53
2022-07-31T14:32:25.276Z,5.83
2022-07-31T14:34:54.919Z,6.70
2022-07-31T14:37:24.424Z,4.70
2022-07-31T14:39:56.749Z,6.83
2022-07-31T14:42:26.955Z,5.40
2022-07-31T14:44:56.625Z,4.37
2022-07-31T14:47:26.105Z,3.23
2022-07-31T14:50:08.617Z,4.33
2022-07-31T14:52:40.399Z,3.60
2022-07-31T14:55:13.035Z,5.40
2022-07-31T14:57:42.699Z,8.70
2022-07-31T15:00:15.216Z,3.87
2022-07-31T15:02:45.924Z,4.37
2022-07-31T15:06:51.001Z,9.23
2022-07-31T15:08:05.362Z,6.77
2022-07-31T15:10:37.773Z,12.63
2022-07-31T15:13:07.320Z,5.93
2022-07-31T15:15:36.843Z,5.60
2022-07-31T15:18:06.723Z,7.30
2022-07-31T15:20:37.060Z,6.60
2022-07-31T15:23:07.103Z,7.37
2022-07-31T15:25:39.264Z,13.60
2022-07-31T15:28:08.761Z,9.50
2022-07-31T15:30:38.518Z,8.57
2022-07-31T15:33:08.151Z,9.33
2022-07-31T15:35:37.694Z,12.80
2022-07-31T15:38:07.316Z,15.00
2022-07-31T15:40:39.471Z,10.90
2022-07-31T15:43:08.942Z,11.73
2022-07-31T15:45:38.438Z,11.40
2022-07-31T15:48:10.170Z,12.80
2022-07-31T15:50:40.305Z,11.33
2022-07-31T15:53:09.871Z,14.30
2022-07-31T15:55:41.999Z,12.13
2022-07-31T15:58:11.663Z,12.30
2022-07-31T16:00:41.283Z,21.03
2022-07-31T16:03:10.870Z,13.07
2022-07-31T16:05:55.763Z,13.90
2022-07-31T16:08:30.449Z,16.90
2022-07-31T16:11:06.700Z,15.70
2022-07-31T16:13:36.686Z,13.70
2022-07-31T16:16:06.453Z,14.50
2022-07-31T16:18:35.958Z,16.57
2022-07-31T16:21:05.725Z,20.37
2022-07-31T16:23:35.266Z,23.07
2022-07-31T16:26:07.888Z,15.97
2022-07-31T16:28:37.404Z,25.50
2022-07-31T16:31:07.031Z,22.80
2022-07-31T16:33:36.630Z,27.43
2022-07-31T16:36:06.331Z,22.97
2022-07-31T16:38:35.776Z,15.60
2022-07-31T16:41:07.863Z,20.20
2022-07-31T16:43:50.021Z,18.23
2022-07-31T16:46:21.150Z,17.43
2022-07-31T16:48:50.796Z,16.47
2022-07-31T16:51:20.462Z,21.17
2022-07-31T16:54:10.936Z,19.90
2022-07-31T16:56:42.280Z,16.80
2022-07-31T16:59:11.773Z,17.40
2022-07-31T17:01:59.049Z,16.57
2022-07-31T17:04:30.653Z,15.70
2022-07-31T17:07:00.378Z,17.43
2022-07-31T17:09:31.551Z,16.27
2022-07-31T17:12:04.372Z,15.93
2022-07-31T17:14:34.040Z,17.67
2022-07-31T17:17:03.821Z,20.30
2022-07-31T17:19:41.592Z,18.63
2022-07-31T17:22:17.840Z,19.33
2022-07-31T17:24:50.867Z,18.80
2022-07-31T17:27:24.334Z,17.10
2022-07-31T17:29:55.125Z,14.60
2022-07-31T17:32:24.680Z,13.93
2022-07-31T17:34:54.185Z,14.80
2022-07-31T17:37:24.650Z,15.60
2022-07-31T17:39:57.742Z,15.27
2022-07-31T17:42:30.420Z,15.57
2022-07-31T17:45:02.017Z,13.40
2022-07-31T17:47:31.878Z,13.90
2022-07-31T17:50:01.329Z,14.87
2022-07-31T17:52:30.935Z,14.90
2022-07-31T17:55:01.430Z,14.50
2022-07-31T17:57:34.015Z,15.37
2022-07-31T18:00:04.005Z,18.80
2022-07-31T18:02:33.714Z,16.20
2022-07-31T18:05:03.256Z,18.80
2022-07-31T18:07:32.903Z,18.30
2022-07-31T18:10:02.393Z,23.53
2022-07-31T18:12:56.846Z,26.97
2022-07-31T18:15:34.651Z,19.33
2022-07-31T18:18:05.583Z,20.47
2022-07-31T18:20:35.805Z,20.63
2022-07-31T18:23:05.442Z,23.50
2022-07-31T18:25:39.726Z,22.13
2022-07-31T18:28:11.798Z,26.73
2022-07-31T18:30:42.243Z,24.50
2022-07-31T18:33:14.234Z,22.30
2022-07-31T18:35:43.916Z,30.20
2022-07-31T18:38:13.634Z,26.50
2022-07-31T18:40:43.158Z,27.43
2022-07-31T18:43:15.443Z,26.40
2022-07-31T18:45:44.898Z,23.37
2022-07-31T18:48:14.378Z,23.00
2022-07-31T18:50:59.458Z,23.57
2022-07-31T18:53:33.489Z,21.50
2022-07-31T18:56:03.021Z,21.53
2022-07-31T18:58:35.115Z,20.40
2022-07-31T19:01:05.435Z,21.17
2022-07-31T19:03:34.927Z,21.23
2022-07-31T19:06:04.506Z,22.30
2022-07-31T19:08:34.521Z,21.60
2022-07-31T19:11:04.022Z,23.30
2022-07-31T19:13:36.306Z,24.60
2022-07-31T19:16:05.843Z,22.10
2022-07-31T19:18:36.018Z,28.40
2022-07-31T19:21:23.523Z,41.10
2022-07-31T19:23:55.784Z,28.70
2022-07-31T19:26:25.343Z,29.70
2022-07-31T19:28:57.478Z,25.20
2022-07-31T19:31:26.974Z,25.30
2022-07-31T19:33:56.446Z,26.30
2022-07-31T19:36:25.962Z,30.93
2022-07-31T19:38:55.521Z,27.50
2022-07-31T19:41:25.248Z,27.60
2022-07-31T19:43:57.322Z,29.23
2022-07-31T19:46:26.846Z,36.87
2022-07-31T19:48:56.418Z,32.93
2022-07-31T19:51:26.016Z,31.27
2022-07-31T19:53:55.559Z,36.83
2022-07-31T19:56:25.145Z,48.63
2022-07-31T19:58:57.246Z,48.00
2022-07-31T20:01:27.186Z,51.77
2022-07-31T20:03:57.780Z,46.03
2022-07-31T20:06:28.160Z,32.67
2022-07-31T20:08:59.162Z,28.83
2022-07-31T20:11:28.633Z,24.87
2022-07-31T20:14:00.925Z,27.07
2022-07-31T20:16:30.848Z,25.60
2022-07-31T20:19:00.906Z,24.70
2022-07-31T20:21:31.938Z,25.97
2022-07-31T20:24:04.538Z,28.10
2022-07-31T20:26:36.438Z,24.80
2022-07-31T20:29:08.610Z,22.27
2022-07-31T20:31:38.235Z,24.30
2022-07-31T20:34:07.706Z,25.30
2022-07-31T20:36:37.311Z,23.30
2022-07-31T20:39:06.900Z,25.10
2022-07-31T20:41:36.497Z,23.80
2022-07-31T20:44:08.671Z,22.70
2022-07-31T20:46:38.275Z,17.80
2022-07-31T20:49:07.811Z,18.60
2022-07-31T20:51:52.150Z,20.20
2022-07-31T20:54:34.083Z,14.80
2022-07-31T20:57:04.483Z,13.83
2022-07-31T20:59:36.650Z,14.30
2022-07-31T21:02:06.485Z,14.90
2022-07-31T21:04:36.293Z,15.57
2022-07-31T21:07:05.820Z,16.10
2022-07-31T21:09:35.373Z,16.07
2022-07-31T21:12:06.832Z,16.93
2022-07-31T21:14:39.162Z,18.80
2022-07-31T21:17:08.678Z,21.03
2022-07-31T21:19:38.122Z,18.47
2022-07-31T21:22:07.942Z,25.50
2022-07-31T21:24:38.546Z,19.30
2022-07-31T21:27:08.807Z,21.57
2022-07-31T21:29:41.508Z,20.47
2022-07-31T21:32:12.399Z,22.30
2022-07-31T21:34:42.567Z,20.73
2022-07-31T21:37:16.167Z,28.27
2022-07-31T21:39:46.413Z,22.73
2022-07-31T21:42:17.914Z,22.40
2022-07-31T21:44:50.729Z,34.70
2022-07-31T21:47:22.897Z,22.40
2022-07-31T21:49:58.363Z,23.00
2022-07-31T21:52:30.084Z,22.87
2022-07-31T21:55:03.838Z,23.90
2022-07-31T21:57:59.370Z,23.83
2022-07-31T22:00:27.530Z,24.10
2022-07-31T22:02:58.831Z,41.47
2022-07-31T22:05:40.859Z,24.40
2022-07-31T22:08:10.416Z,21.90
2022-07-31T22:10:39.982Z,23.40
2022-07-31T22:13:10.083Z,21.93
2022-07-31T22:15:59.054Z,22.90
2022-07-31T22:18:30.459Z,23.17
2022-07-31T22:21:00.488Z,33.60
2022-07-31T22:23:31.221Z,28.80
2022-07-31T22:26:01.354Z,24.20
2022-07-31T22:28:31.399Z,25.43
2022-07-31T22:31:04.652Z,24.63
2022-07-31T22:33:34.354Z,27.97
2022-07-31T22:36:07.183Z,27.03
2022-07-31T22:38:38.162Z,26.80
2022-07-31T22:41:08.005Z,25.73
2022-07-31T22:44:10.710Z,35.03
2022-07-31T22:46:30.360Z,25.73
2022-07-31T22:49:02.616Z,28.27
2022-07-31T22:51:38.442Z,36.97
2022-07-31T22:54:08.510Z,27.60
2022-07-31T22:56:37.997Z,29.23
2022-07-31T22:59:08.881Z,24.90
2022-07-31T23:01:40.960Z,29.93
2022-07-31T23:04:10.555Z,29.63
2022-07-31T23:06:40.071Z,26.33
2022-07-31T23:09:09.569Z,26.70
2022-07-31T23:11:39.079Z,26.00
2022-07-31T23:14:08.743Z,25.07
2022-07-31T23:16:40.972Z,30.13
2022-07-31T23:19:10.652Z,26.57
2022-07-31T23:21:40.597Z,25.80
2022-07-31T23:24:10.998Z,28.70
2022-07-31T23:26:40.506Z,33.37
2022-07-31T23:29:10.038Z,26.07
2022-07-31T23:31:42.290Z,30.37
2022-07-31T23:34:12.043Z,23.87
2022-07-31T23:36:41.509Z,23.27
2022-07-31T23:39:12.861Z,26.43
2022-07-31T23:41:55.371Z,22.73
2022-07-31T23:44:25.182Z,22.83
2022-07-31T23:46:57.354Z,18.77
2022-07-31T23:49:26.902Z,17.80
2022-07-31T23:51:56.606Z,17.20
2022-07-31T23:54:26.098Z,16.87
2022-07-31T23:56:55.638Z,17.47
2022-07-31T23:59:25.129Z,17.50
